Stations météo

réclame
Mon MeteoGroup
Itsaso, Espagne (8037): Température de l'air & dewpoint: 15.10.2017 08:00:00 - 21.10.2017 08:00:00 (CEST)Itsaso, Espagne (8037): Vitesse du vent & gusts: 15.10.2017 08:00:00 - 21.10.2017 08:00:00 (CEST)Itsaso, Espagne (8037): Direction du vent: 15.10.2017 08:00:00 - 21.10.2017 08:00:00 (CEST)Itsaso, Espagne (8037): reduced air pressure: 15.10.2017 08:00:00 - 21.10.2017 08:00:00 (CEST)Itsaso, Espagne (8037): Quantités de précipitations: 15.10.2017 08:00:00 - 21.10.2017 08:00:00 (CEST)
Date & Time tt [°C] td [°C] ff [km/h] ff [knt] fx [km/h] fx [knt] dd ppp [hPa] rr [mm]
21.10.2017 08:00:00 12,6 12,4 12 6 22 12 W 1021,1 -
21.10.2017 07:00:00 14,1 13,8 10 5 27 14 W 1019,9 0,0
21.10.2017 06:00:00 15,1 13,9 11 6 26 14 W 1019,0 0,0
21.10.2017 05:00:00 16,7 12,8 21 11 33 18 W 1017,8 0,0
21.10.2017 04:00:00 18,2 12,0 3 1 32 17 W 1016,9 0,0
21.10.2017 03:00:00 18,6 11,9 3 2 26 14 SSW 1016,1 0,0
21.10.2017 02:00:00 19,0 11,6 3 2 31 17 ESE 1015,5 -
21.10.2017 01:00:00 17,2 10,3 6 4 29 16 SE 1016,0 0,0
21.10.2017 00:00:00 15,9 10,2 7 4 18 10 ESE 1016,2 0,0
20.10.2017 23:00:00 14,8 9,8 3 2 10 5 ESE 1016,6 0,0
20.10.2017 22:00:00 15,3 8,5 1 1 13 7 ESE 1016,6 0,0
20.10.2017 21:00:00 16,6 6,7 6 3 17 9 ESE 1016,2 0,0
20.10.2017 20:00:00 18,3 6,1 3 2 13 7 ESE 1015,5 -
20.10.2017 19:00:00 18,5 6,7 2 1 8 5 SSE 1015,0 0,0
20.10.2017 18:00:00 20,2 7,3 1 1 13 7 S 1014,8 0,0
20.10.2017 17:00:00 21,0 7,6 4 2 16 9 NW 1014,7 0,0
20.10.2017 16:00:00 21,9 8,4 5 3 19 11 W 1014,4 0,0
20.10.2017 15:00:00 21,3 8,9 4 2 20 11 W 1014,5 0,0
20.10.2017 14:00:00 19,8 9,7 3 2 28 15 SE 1015,2 -
20.10.2017 13:00:00 17,9 10,0 4 2 22 12 W 1015,8 0,0
20.10.2017 12:00:00 14,6 9,8 5 3 14 7 ESE 1016,7 0,0
20.10.2017 11:00:00 13,2 9,7 0 0 6 3 N 1017,2 0,0
20.10.2017 10:00:00 11,2 9,8 1 0 6 3 WSW 1017,3 0,0
20.10.2017 09:00:00 10,1 8,9 1 1 8 4 SW 1016,9 0,0
20.10.2017 08:00:00 9,9 8,7 0 0 8 4 S 1016,3 -
20.10.2017 07:00:00 9,7 8,3 0 0 7 4 SE 1015,9 0,0
20.10.2017 06:00:00 10,1 8,7 2 1 9 5 WSW 1015,4 0,0
20.10.2017 05:00:00 10,5 8,3 2 1 9 5 SW 1015,0 0,0
20.10.2017 04:00:00 10,8 8,0 1 0 6 3 SE 1014,9 0,0
20.10.2017 03:00:00 10,8 8,4 0 0 4 2 ESE 1014,9 0,1
20.10.2017 02:00:00 10,8 7,8 0 0 8 4 ENE 1014,4 -
20.10.2017 01:00:00 9,9 8,0 2 1 10 5 SW 1014,1 0,0
20.10.2017 00:00:00 10,0 8,1 1 1 8 4 SW 1013,8 0,0
19.10.2017 23:00:00 9,6 7,1 1 0 - - WSW 1013,4 -
19.10.2017 22:00:00 9,3 7,7 5 3 11 6 SW 1012,7 0,0
19.10.2017 21:00:00 10,5 7,7 3 1 13 7 SW 1012,3 0,0
19.10.2017 20:00:00 11,0 8,3 3 1 10 5 WSW 1011,9 -
19.10.2017 19:00:00 12,4 9,0 4 2 10 5 SW 1010,7 0,0
19.10.2017 18:00:00 15,2 6,7 1 1 18 10 WSW 1010,1 0,0
19.10.2017 17:00:00 16,3 8,3 1 0 8 5 W 1009,1 0,0
19.10.2017 16:00:00 16,8 9,0 3 2 10 6 ESE 1009,0 0,0
19.10.2017 15:00:00 15,4 9,3 3 1 9 5 NE 1009,4 0,0
19.10.2017 14:00:00 13,7 10,6 2 1 13 7 W 1010,5 -
19.10.2017 13:00:00 12,6 11,0 1 1 5 3 W 1011,4 0,0
19.10.2017 12:00:00 13,3 11,3 1 1 11 6 NW 1011,1 0,0
19.10.2017 11:00:00 11,9 11,1 3 2 7 4 E 1011,1 0,0
19.10.2017 10:00:00 10,3 10,2 4 2 7 4 W 1011,1 0,0
19.10.2017 09:00:00 9,8 9,7 0 0 3 2 SW 1011,1 0,0
19.10.2017 08:00:00 9,9 9,8 0 0 4 2 SW 1010,9 -
19.10.2017 07:00:00 10,1 9,9 2 1 4 2 SE 1010,7 0,1
19.10.2017 06:00:00 10,1 9,9 0 0 3 1 WNW 1010,4 0,1
19.10.2017 05:00:00 10,3 10,2 0 0 3 1 W 1010,4 0,0
19.10.2017 04:00:00 10,2 10,0 1 0 7 4 W 1010,3 0,0
19.10.2017 03:00:00 10,3 10,2 3 2 8 5 W 1010,4 0,1
19.10.2017 02:00:00 10,4 10,3 4 2 16 9 W 1010,4 -
19.10.2017 01:00:00 10,3 10,2 8 4 15 8 W 1010,2 2,6
19.10.2017 00:00:00 10,5 10,3 6 4 20 11 W 1010,4 2,0
18.10.2017 23:00:00 10,8 10,6 10 5 20 11 W 1010,0 1,4
18.10.2017 22:00:00 11,1 11,0 9 5 19 10 W 1009,6 0,2
18.10.2017 21:00:00 11,5 11,3 1 1 9 5 NW 1009,5 0,0
18.10.2017 20:00:00 11,9 11,8 4 2 8 4 W 1009,0 -
18.10.2017 19:00:00 12,1 11,7 5 3 11 6 W 1008,6 0,1
18.10.2017 18:00:00 12,4 11,9 1 0 6 3 N 1008,6 0,4
18.10.2017 17:00:00 12,6 11,7 1 1 6 3 ESE 1008,3 0,1
18.10.2017 16:00:00 12,5 11,7 3 1 11 6 WNW 1008,2 0,0
18.10.2017 15:00:00 12,4 11,4 5 3 26 14 WNW 1008,5 0,3
18.10.2017 14:00:00 14,0 12,8 7 4 18 10 W 1007,7 -
18.10.2017 13:00:00 15,5 15,0 0 0 3 2 W 1007,8 0,6
18.10.2017 12:00:00 15,1 14,1 0 0 4 2 SE 1008,6 0,4
18.10.2017 11:00:00 14,2 13,8 0 0 3 2 NE 1009,5 0,3
18.10.2017 10:00:00 13,8 13,4 1 1 5 3 E 1010,2 0,0
18.10.2017 09:00:00 12,9 12,4 3 1 8 4 SSW 1010,4 0,1
18.10.2017 08:00:00 13,4 12,3 3 1 9 5 SW 1010,7 -
18.10.2017 07:00:00 15,7 11,2 0 0 11 6 SE 1010,4 0,0
18.10.2017 06:00:00 15,5 10,9 1 1 11 6 SSE 1010,7 0,0
18.10.2017 05:00:00 15,1 10,9 0 0 11 6 W 1011,4 0,0
18.10.2017 04:00:00 15,6 11,0 2 1 21 11 SE 1011,8 0,0
18.10.2017 03:00:00 16,1 10,9 3 2 22 12 E 1012,1 0,0
18.10.2017 02:00:00 16,4 9,8 5 3 20 11 E 1012,2 -
18.10.2017 01:00:00 16,6 9,3 2 1 14 8 E 1012,9 0,0
18.10.2017 00:00:00 17,6 8,7 5 3 17 9 E 1013,5 0,0
17.10.2017 23:00:00 17,9 8,1 4 2 14 7 SE 1013,5 0,0
17.10.2017 22:00:00 17,5 8,4 1 1 11 6 ESE 1013,7 0,0
17.10.2017 21:00:00 18,1 7,6 3 2 18 10 ESE 1013,4 0,0
17.10.2017 20:00:00 19,3 7,4 7 4 21 12 ESE 1013,5 -
17.10.2017 19:00:00 19,6 8,3 2 1 25 13 ESE 1013,0 0,0
17.10.2017 18:00:00 20,0 8,0 8 5 26 14 ESE 1013,0 0,0
17.10.2017 17:00:00 20,6 8,3 11 6 31 17 ESE 1013,0 0,0
17.10.2017 16:00:00 20,3 8,7 9 5 35 19 ESE 1012,8 0,0
17.10.2017 15:00:00 20,0 7,7 11 6 38 20 ESE 1013,9 0,0
17.10.2017 14:00:00 20,2 9,4 6 3 28 15 E 1015,2 -
17.10.2017 13:00:00 19,8 9,9 9 5 30 16 E 1016,2 0,0
17.10.2017 12:00:00 18,5 10,0 6 3 28 15 E 1017,1 0,0
17.10.2017 11:00:00 16,1 9,9 5 3 29 16 ESE 1018,3 0,0
17.10.2017 10:00:00 14,8 10,2 3 2 16 9 ESE 1018,8 0,0
17.10.2017 09:00:00 15,0 10,0 5 3 21 11 E 1018,7 0,0
17.10.2017 08:00:00 15,0 9,6 3 1 17 9 ESE 1018,7 -
17.10.2017 07:00:00 15,4 9,7 1 1 14 8 SSE 1018,6 0,0
17.10.2017 06:00:00 15,3 10,3 0 0 7 4 E 1018,7 0,0
17.10.2017 05:00:00 15,2 10,6 1 1 18 10 ESE 1018,8 0,0
17.10.2017 04:00:00 16,1 10,9 5 3 16 9 ESE 1019,1 0,0
17.10.2017 03:00:00 14,4 11,6 1 0 6 3 ESE 1020,0 0,0
17.10.2017 02:00:00 14,7 13,0 0 0 6 4 WSW 1020,4 -
17.10.2017 01:00:00 13,3 13,2 1 0 4 2 S 1021,2 0,0
17.10.2017 00:00:00 12,7 12,5 0 0 0 0 N 1021,9 0,0
16.10.2017 23:00:00 12,9 12,4 0 0 3 2 N 1022,3 0,0
16.10.2017 22:00:00 13,7 12,7 0 0 3 2 W 1022,6 0,0
16.10.2017 21:00:00 14,8 12,8 1 0 8 4 NNW 1022,4 0,0
16.10.2017 20:00:00 16,6 13,2 3 2 9 5 NW 1022,0 -
16.10.2017 19:00:00 18,4 13,5 5 3 14 7 NNW 1021,1 0,0
16.10.2017 18:00:00 22,2 11,9 3 2 16 8 ENE 1019,8 0,0
16.10.2017 17:00:00 24,0 12,0 1 1 18 10 ESE 1019,6 0,0
16.10.2017 16:00:00 24,1 12,4 9 5 21 11 E 1019,9 0,0
16.10.2017 15:00:00 23,5 12,7 8 4 20 11 ESE 1020,3 0,0
16.10.2017 14:00:00 22,1 12,6 8 4 25 14 ESE 1021,2 -
16.10.2017 13:00:00 20,6 12,5 14 8 30 16 ESE 1021,8 0,0
16.10.2017 12:00:00 20,2 12,6 14 8 31 17 ESE 1022,2 0,0
16.10.2017 11:00:00 19,3 12,5 11 6 27 15 ESE 1022,2 0,0
16.10.2017 10:00:00 18,2 12,4 8 4 22 12 ESE 1021,8 0,0
16.10.2017 09:00:00 16,3 12,1 4 2 21 11 SE 1021,5 0,0
16.10.2017 08:00:00 17,0 12,1 5 3 40 22 SE 1020,9 -
16.10.2017 07:00:00 17,3 12,4 10 6 34 18 ESE 1020,4 0,0
16.10.2017 06:00:00 17,6 12,5 6 3 31 17 ESE 1020,3 0,0
16.10.2017 05:00:00 17,9 12,5 12 6 31 17 ESE 1020,1 0,0
16.10.2017 04:00:00 18,4 12,4 7 4 35 19 ESE 1020,3 0,0
16.10.2017 03:00:00 19,1 12,8 7 4 42 23 SE 1020,4 0,0
16.10.2017 02:00:00 19,4 13,4 8 5 44 24 ESE 1020,3 -
16.10.2017 01:00:00 19,8 13,5 12 7 27 15 ESE 1020,5 0,0
16.10.2017 00:00:00 19,1 12,8 4 2 18 10 E 1020,7 0,0
15.10.2017 23:00:00 19,2 12,6 4 2 17 9 SE 1021,0 0,0
15.10.2017 22:00:00 19,1 12,1 3 2 18 10 ESE 1020,7 0,0
15.10.2017 21:00:00 19,2 12,0 4 2 17 9 ESE 1020,6 0,0
15.10.2017 20:00:00 20,0 11,8 3 2 19 11 ESE 1020,5 -
15.10.2017 19:00:00 21,1 12,0 4 2 16 9 SE 1019,8 0,0
15.10.2017 18:00:00 22,3 12,2 7 4 16 9 ESE 1019,5 0,0
15.10.2017 17:00:00 23,1 12,7 6 3 24 13 ESE 1019,5 0,0
15.10.2017 16:00:00 23,4 12,4 8 5 24 13 ESE 1020,0 0,0
15.10.2017 15:00:00 23,1 12,4 11 6 26 14 ESE 1020,6 0,0
15.10.2017 14:00:00 22,5 12,7 8 4 28 15 ESE 1021,3 -
15.10.2017 13:00:00 21,5 12,8 12 6 27 15 E 1022,1 0,0
15.10.2017 12:00:00 20,6 13,6 10 5 28 15 E 1022,8 0,0
15.10.2017 11:00:00 19,4 13,8 10 5 24 13 ESE 1023,1 0,0
15.10.2017 10:00:00 17,9 14,2 6 3 19 10 E 1023,1 0,0
15.10.2017 09:00:00 16,5 13,5 5 3 18 10 ESE 1023,1 0,0
15.10.2017 08:00:00 16,6 13,0 6 4 21 11 ESE 1022,7 -

tt = Température de l'air
td = dewpoint
ff = Vitesse du vent
fx = gusts
dd = Direction du vent
ppp = reduced air pressure
rr = Quantités de précipitations

stations d'obs. à proximité